SKVV/VVC METAR and TAF weather

Enter ICAO airport designator
Station Type Date Time Source
SKVV METAR 2019/02/18 00:00 UTC NOAA

SKVV 180000Z 12003KT 8000 -DZ BKN020 SCT090 25/21 A2991


Station Type Date Time Source
SKVV Decoded METAR 2019/02/18 00:00 UTC NOAA

Villavicencio / Vanguardia, Colombia (SKVV) 04-10N 073-37W 431M
Feb 17, 2019 - 07:00 PM EST / 2019.02.18 0000 UTC
Wind: from the ESE (120 degrees) at 3 MPH (3 KT):0
Visibility: 4 mile(s):0
Sky conditions: mostly cloudy
Weather: light drizzle
Temperature: 77 F (25 C)
Dew Point: 69 F (21 C)
Relative Humidity: 78%
Pressure (altimeter): 29.91 in. Hg (1012 hPa)
ob: SKVV 180000Z 12003KT 8000 -DZ BKN020 SCT090 25/21 A2991
cycle: 0

Station Type Date Time Source
SKVV TAF UTC NOAA

Error!


Example: see airport list